Main page
METAR-TAF:

METAR-TAF

Airports :

Los Cabos International Airport

San José Del Cabo, Mexico

latitude: 23-09N, longitude: 109-42W, elevation: 109 m

Current weather observation

The report was made 1 hour and 4 minutes ago, at 03:56 UTC
Wind 4 kt from the West/Northwest
Temperature 20°C
Humidity 56%
Pressure 1019 hPa
Visibility: 19.3 km
Broken clouds at a height of 25000 ft

METAR: MMSD 010356Z 30004KT 12SM BKN250 20/11 A3008 RMK 8/008

Time: 22:00 (05:00 UTC)

Forecast

The report was made 12 hours and 35 minutes ago, at 16:25 UTC
Forecast valid from 29 at 18 UTC to 01 at 18 UTC
Wind 10 kt from the South/Southeast
Visibility: 10 km
Broken clouds at a height of 28000 ft
From 01 at 0300 UTC
Wind 5 kt from the North/Northwest
Visibility: 10 km
Broken clouds at a height of 28000 ft
From 01 at 1600 UTC
Wind 8 kt from the South/Southeast
Visibility: 10 km
Broken clouds at a height of 28000 ft

TAF: MMSD 291625Z 2918/0118 15010KT P6SM BKN280 FM010300 34005KT P6SM BKN280 FM011600 15008KT P6SM BKN280

Weather observations and forecasts of more than 4000 airports (METAR and TAF reports).

The available stations are represented by yellow and red dots on the map.

Hover mouse over dot to see the name of the station.

Then click to see weather observations and forecasts.

To change the map : click on the green buttons with a black cross to zoom in, on the green button with a dash to zoom out, or on the green arrows for adjacent maps.


METAR-TAF: